Data for 01/05/2011

Time Sea-Level Adjusted Pressure Absolute Pressure Temperature Relative Humidity Dew Point   
(mb) (inHg) (mb) (inHg) (C) (F) (%) (C) (F)
00:05 1017 30.03 846 24.98 -2.6 27.3 72 -7 19.4
00:10 1016 30 846 24.98 -2.5 27.4 72 -6.9 19.5
00:15 1016 30 846 24.98 -2.5 27.5 72 -6.9 19.6
00:20 1016 30 845 24.95 -2.4 27.6 71 -7 19.4
00:25 1016 30 845 24.95 -2.4 27.6 72 -6.8 19.7
00:30 1016 30 845 24.95 -2.4 27.6 72 -6.8 19.7
00:35 1016 30 845 24.95 -2.4 27.6 73 -6.7 20
00:40 1016 30 845 24.95 -2.3 27.9 73 -6.5 20.4
00:45 1016 30 845 24.95 -2.1 28.2 72 -6.5 20.4
00:50 1016 30 845 24.95 -2.1 28.2 73 -6.3 20.7
00:55 1016 30 845 24.95 -2.3 27.9 73 -6.4 20.4
01:00 1016 30 845 24.95 -2.1 28.1 74 -6.2 20.9
01:05 1016 30 845 24.95 -1.8 28.8 73 -5.9 21.4
01:10 1016 30 845 24.95 -1.2 29.8 72 -5.6 22
01:15 1016 30 845 24.95 -0.9 30.4 71 -5.5 22.1
01:20 1016 30 845 24.95 -0.9 30.4 70 -5.6 21.9
01:25 1016 30 845 24.95 -1.3 29.7 70 -6 21.1
01:30 1016 30 845 24.95 -1.6 29.1 70 -6.4 20.4
01:35 1016 30 845 24.95 -1.7 29 70 -6.4 20.5
01:40 1016 30 845 24.95 -1.6 29 71 -6.2 20.8
01:45 1016 30 845 24.95 -1.7 28.9 71 -6.4 20.5
01:50 1016 30 845 24.95 -1.6 29.2 68 -6.6 20.1
01:55 1016 30 845 24.95 -1.4 29.5 67 -6.8 19.8
02:00 1016 30 845 24.95 -1.2 29.8 67 -6.5 20.2
02:05 1016 30 845 24.95 -1.3 29.7 70 -6.1 21
02:10 1016 30 845 24.95 -1.5 29.2 71 -6.2 20.8
02:15 1016 30 845 24.95 -1.6 29.1 71 -6.2 20.9
02:20 1016 30 846 24.98 -1.6 29.1 72 -6 21.1
02:25 1016 30 846 24.98 -1.6 29.1 71 -6.1 20.9
02:30 1016 30 846 24.98 -1.6 29.1 71 -6.1 21
02:35 1016 30 845 24.95 -1.6 29 72 -6.1 21
02:40 1016 30 845 24.95 -1.6 29 72 -6 21.2
02:45 1016 30 846 24.98 -1.6 29.1 71 -6.1 21
02:50 1016 30 846 24.98 -1.5 29.4 70 -6.2 20.9
02:55 1017 30.03 846 24.98 -1.2 29.8 70 -6.1 21
03:00 1017 30.03 846 24.98 -1 30.1 69 -6.1 21
03:05 1017 30.03 846 24.98 -1 30.1 69 -5.9 21.3
03:10 1017 30.03 846 24.98 -1.1 29.9 70 -5.9 21.3
03:15 1017 30.03 846 24.98 -1.1 30 70 -6 21.2
03:20 1017 30.03 846 24.98 -1.1 30 70 -5.9 21.3
03:25 1017 30.03 846 24.98 -1.2 29.8 71 -5.8 21.5
03:30 1017 30.03 846 24.98 -1.4 29.6 71 -6 21.1
03:35 1017 30.03 846 24.98 -1.4 29.5 72 -5.9 21.4
03:40 1017 30.03 846 24.98 -1.7 29 73 -5.9 21.3
03:45 1017 30.03 846 24.98 -1.8 28.8 73 -6 21.1
03:50 1017 30.03 846 24.98 -1.8 28.8 73 -6 21.2
03:55 1017 30.03 846 24.98 -1.8 28.8 72 -6.1 21
04:00 1017 30.03 846 24.98 -1.8 28.8 73 -6 21.1
04:05 1017 30.03 846 24.98 -1.8 28.8 72 -6.1 21
04:10 1017 30.03 846 24.98 -1.8 28.8 73 -6.1 21.1
04:15 1017 30.03 847 25.01 -1.7 29 73 -5.9 21.4
04:20 1017 30.03 847 25.01 -1.6 29.1 74 -5.7 21.8
04:25 1017 30.03 847 25.01 -1.5 29.3 75 -5.4 22.2
04:30 1018 30.06 847 25.01 -1.3 29.6 76 -5.1 22.8
04:35 1018 30.06 847 25.01 -1.5 29.4 79 -4.7 23.6
04:40 1018 30.06 847 25.01 -1.6 29.2 82 -4.2 24.4
04:45 1018 30.06 847 25.01 -1.7 28.9 85 -4 24.8
04:50 1018 30.06 847 25.01 -1.9 28.6 87 -3.8 25.2
04:55 1018 30.06 847 25.01 -1.9 28.5 88 -3.6 25.5
05:00 1018 30.06 847 25.01 -2 28.4 90 -3.4 25.8
05:05 1018 30.06 847 25.01 -2 28.3 90 -3.4 25.9
05:10 1018 30.06 847 25.01 -2.1 28.2 90 -3.5 25.6
05:15 1018 30.06 847 25.01 -2.3 27.9 89 -3.8 25.2
05:20 1018 30.06 847 25.01 -2.5 27.4 91 -3.8 25.1
05:25 1018 30.06 847 25.01 -2.7 27.1 92 -3.8 25.2
05:30 1018 30.06 847 25.01 -2.7 27.1 93 -3.7 25.4
05:35 1018 30.06 847 25.01 -2.7 27.1 94 -3.6 25.6
05:40 1018 30.06 847 25.01 -2.7 27.1 95 -3.5 25.8
05:45 1018 30.06 847 25.01 -2.5 27.5 95 -3.3 26.1
05:50 1018 30.06 847 25.01 -2.3 27.8 94 -3.1 26.4
05:55 1018 30.06 847 25.01 -2.1 28.1 93 -3.1 26.4
06:00 1018 30.06 847 25.01 -2 28.4 92 -3.2 26.2
06:05 1018 30.06 847 25.01 -1.9 28.6 90 -3.3 26
06:10 1018 30.06 847 25.01 -1.8 28.8 89 -3.3 26
06:15 1018 30.06 847 25.01 -1.5 29.4 88 -3.3 26.1
06:20 1018 30.06 847 25.01 -1.7 28.9 91 -3.1 26.5
06:25 1018 30.06 847 25.01 -2.1 28.2 92 -3.3 26.1
06:30 1018 30.06 847 25.01 -2 28.4 91 -3.3 26
06:35 1018 30.06 847 25.01 -2 28.4 91 -3.3 26.1
06:40 1018 30.06 847 25.01 -2.1 28.2 92 -3.3 26.1
06:45 1018 30.06 847 25.01 -2.1 28.3 90 -3.5 25.7
06:50 1018 30.06 847 25.01 -2 28.4 79 -5.1 22.8
06:55 1018 30.06 847 25.01 -1.7 29 76 -5.3 22.4
07:00 1018 30.06 847 25.01 -1.7 28.9 76 -5.4 22.3
07:05 1018 30.06 847 25.01 -1.8 28.7 75 -5.7 21.7
07:10 1018 30.06 847 25.01 -1.7 28.9 75 -5.7 21.8
07:15 1018 30.06 847 25.01 -1.8 28.8 75 -5.7 21.7
07:20 1018 30.06 847 25.01 -1.7 28.9 71 -6.4 20.6
07:25 1018 30.06 847 25.01 -1.5 29.4 69 -6.4 20.5
07:30 1018 30.06 847 25.01 -1.3 29.7 69 -6.3 20.7
07:35 1018 30.06 848 25.04 -1.2 29.8 70 -6 21.1
07:40 1018 30.06 848 25.04 -1.2 29.8 70 -6.1 21
07:45 1018 30.06 848 25.04 -1.3 29.7 71 -6 21.3
07:50 1018 30.06 848 25.04 -1.3 29.6 70 -6 21.1
07:55 1018 30.06 847 25.01 -1.4 29.6 70 -6.2 20.8
08:00 1018 30.06 847 25.01 -1.1 29.9 67 -6.4 20.4
08:05 1018 30.06 848 25.04 -1.1 30.1 69 -6 21.2
08:10 1019 30.09 848 25.04 -1.1 30 69 -6 21.1
08:15 1019 30.09 848 25.04 -1.2 29.9 68 -6.3 20.7
08:20 1019 30.09 848 25.04 -1.1 30 67 -6.5 20.3
08:25 1019 30.09 848 25.04 -1 30.1 68 -6.1 21
08:30 1019 30.09 848 25.04 -1.1 30 70 -5.9 21.4
08:35 1019 30.09 848 25.04 -1.2 29.8 70 -5.9 21.4
08:40 1019 30.09 848 25.04 -1.1 30 71 -5.8 21.6
08:45 1019 30.09 848 25.04 -1.2 29.9 71 -5.7 21.8
08:50 1019 30.09 848 25.04 -1.2 29.9 71 -5.7 21.7
08:55 1019 30.09 848 25.04 -1.1 30.1 71 -5.7 21.8
09:00 1019 30.09 848 25.04 -1 30.3 71 -5.6 21.9
09:05 1019 30.09 848 25.04 -1 30.3 70 -5.7 21.7
09:10 1019 30.09 848 25.04 -0.9 30.4 70 -5.7 21.7
09:15 1019 30.09 849 25.07 -0.9 30.4 69 -5.8 21.6
09:20 1019 30.09 849 25.07 -0.8 30.5 70 -5.7 21.8
09:25 1019 30.09 849 25.07 -0.8 30.6 70 -5.7 21.8
09:30 1019 30.09 849 25.07 -0.7 30.8 69 -5.6 21.9
09:35 1019 30.09 849 25.07 -0.6 30.8 70 -5.5 22.1
09:40 1019 30.09 849 25.07 -0.6 30.8 69 -5.6 21.8
09:45 1019 30.09 849 25.07 -0.6 31 69 -5.6 21.9
09:50 1020 30.12 849 25.07 -0.5 31.2 68 -5.7 21.8
09:55 1020 30.12 849 25.07 -0.4 31.3 68 -5.7 21.8
10:00 1020 30.12 849 25.07 -0.3 31.5 67 -5.7 21.8
10:05 1020 30.12 849 25.07 -0.2 31.7 67 -5.5 22
10:10 1020 30.12 849 25.07 -0.1 31.9 67 -5.5 22.1
10:15 1020 30.12 849 25.07 0 32 66 -5.5 22.1
10:20 1020 30.12 849 25.07 0.1 32.2 67 -5.3 22.4
10:25 1020 30.12 849 25.07 0.2 32.3 66 -5.4 22.4
10:30 1020 30.12 849 25.07 0.4 32.7 66 -5.3 22.4
10:35 1020 30.12 849 25.07 0.5 32.8 64 -5.5 22.1
10:40 1020 30.12 849 25.07 0.5 32.8 64 -5.6 22
10:45 1020 30.12 849 25.07 0.5 32.9 66 -5.2 22.7
10:50 1020 30.12 849 25.07 0.4 32.8 65 -5.3 22.5
10:55 1020 30.12 849 25.07 0.5 32.8 66 -5.2 22.7
11:00 1020 30.12 849 25.07 0.5 32.9 65 -5.3 22.4
11:05 1020 30.12 849 25.07 0.6 33.2 64 -5.4 22.4
11:10 1020 30.12 849 25.07 0.8 33.5 63 -5.4 22.2
11:15 1020 30.12 849 25.07 1.1 33.9 62 -5.3 22.4
11:20 1020 30.12 849 25.07 1.2 34.1 62 -5.3 22.5
11:25 1020 30.12 850 25.1 1.1 33.9 63 -5.2 22.6
11:30 1020 30.12 850 25.1 0.1 32.2 66 -5.5 22.1
11:35 1020 30.12 850 25.1 0.2 32.3 65 -5.6 21.9
11:40 1020 30.12 850 25.1 0.4 32.7 64 -5.7 21.8
11:45 1020 30.12 850 25.1 0.2 32.3 64 -5.8 21.5
11:50 1020 30.12 850 25.1 0.4 32.8 63 -5.8 21.6
11:55 1020 30.12 850 25.1 1.2 34.1 61 -5.6 21.9
12:00 1020 30.12 850 25.1 1.3 34.3 59 -5.9 21.3
12:05 1020 30.12 850 25.1 0.5 33 64 -5.4 22.2
12:10 1020 30.12 850 25.1 0.3 32.5 64 -5.8 21.6
12:15 1020 30.12 850 25.1 0.3 32.6 63 -5.8 21.5
12:20 1021 30.15 850 25.1 0.6 33 63 -5.8 21.6
12:25 1021 30.15 850 25.1 1.2 34.1 60 -5.8 21.5
12:30 1021 30.15 850 25.1 1.7 35 58 -5.7 21.7
12:35 1021 30.15 850 25.1 1.9 35.4 58 -5.4 22.2
12:40 1021 30.15 850 25.1 1.3 34.4 61 -5.5 22.1
12:45 1021 30.15 850 25.1 1.5 34.6 59 -5.7 21.7
12:50 1021 30.15 850 25.1 1.7 35.1 59 -5.6 22
12:55 1021 30.15 850 25.1 1.4 34.6 60 -5.5 22.1
13:00 1021 30.15 850 25.1 1.6 34.8 59 -5.7 21.7
13:05 1021 30.15 850 25.1 1.3 34.3 62 -5.3 22.5
13:10 1021 30.15 850 25.1 0.9 33.6 62 -5.5 22.1
13:15 1021 30.15 850 25.1 1.1 34 61 -5.5 22
13:20 1021 30.15 850 25.1 1.4 34.5 61 -5.2 22.6
13:25 1021 30.15 850 25.1 1.1 33.9 61 -5.7 21.8
13:30 1021 30.15 850 25.1 1.4 34.5 61 -5.4 22.4
13:35 1021 30.15 850 25.1 1.5 34.8 59 -5.5 22.1
13:40 1021 30.15 850 25.1 1.8 35.3 58 -5.6 22
13:45 1021 30.15 850 25.1 1.9 35.3 57 -5.7 21.8
13:50 1021 30.15 850 25.1 1.8 35.3 58 -5.6 21.9
13:55 1021 30.15 850 25.1 1.8 35.3 57 -5.8 21.5
14:00 1021 30.15 850 25.1 1.8 35.2 57 -5.7 21.7
14:05 1021 30.15 850 25.1 2 35.7 56 -5.8 21.6
14:10 1021 30.15 850 25.1 2.2 36 58 -5.3 22.5
14:15 1021 30.15 850 25.1 2.2 35.9 57 -5.5 22.1
14:20 1021 30.15 850 25.1 1.5 34.7 61 -5.2 22.7
14:25 1021 30.15 850 25.1 0.8 33.5 63 -5.4 22.3
14:30 1021 30.15 850 25.1 1.4 34.5 61 -5.2 22.6
14:35 1021 30.15 850 25.1 1.6 34.9 60 -5.3 22.4
14:40 1021 30.15 850 25.1 1.9 35.4 58 -5.5 22
14:45 1021 30.15 850 25.1 2 35.6 59 -5.3 22.5
14:50 1021 30.15 850 25.1 2 35.5 58 -5.4 22.2
14:55 1021 30.15 850 25.1 2 35.7 58 -5.4 22.3
15:00 1021 30.15 850 25.1 2 35.6 58 -5.4 22.4
15:05 1021 30.15 850 25.1 2.1 35.7 58 -5.3 22.5
15:10 1021 30.15 850 25.1 2.2 35.9 59 -5 23.1
15:15 1021 30.15 850 25.1 2.2 35.9 57 -5.5 22.1
15:20 1021 30.15 850 25.1 2 35.7 57 -5.6 22
15:25 1021 30.15 850 25.1 2.1 35.9 58 -5.2 22.6
15:30 1021 30.15 850 25.1 2.1 35.8 58 -5.3 22.4
15:35 1021 30.15 850 25.1 1.9 35.4 59 -5.4 22.3
15:40 1021 30.15 850 25.1 1.9 35.4 59 -5.3 22.5
15:45 1021 30.15 850 25.1 1.9 35.5 59 -5.3 22.5
15:50 1021 30.15 850 25.1 2 35.6 61 -4.8 23.3
15:55 1021 30.15 850 25.1 2.1 35.7 58 -5.3 22.5
16:00 1021 30.15 850 25.1 2 35.6 59 -5.2 22.6
16:05 1021 30.15 850 25.1 1.9 35.4 60 -5 22.9
16:10 1021 30.15 850 25.1 1.8 35.3 59 -5.3 22.4
16:15 1021 30.15 850 25.1 1.7 35 60 -5.2 22.6
16:20 1021 30.15 851 25.13 1.7 35 62 -4.8 23.4
16:25 1021 30.15 851 25.13 1.7 35 61 -5 23.1
16:30 1021 30.15 851 25.13 1.7 35.1 61 -5.1 22.8
16:35 1021 30.15 851 25.13 1.7 35.1 61 -5 23
16:40 1021 30.15 851 25.13 1.7 35 60 -5.3 22.4
16:45 1022 30.18 851 25.13 1.7 35.1 60 -5.3 22.5
16:50 1022 30.18 851 25.13 1.7 35.1 60 -5.1 22.8
16:55 1022 30.18 851 25.13 1.6 34.9 63 -4.8 23.4
17:00 1022 30.18 851 25.13 1.1 34.1 66 -4.5 24
17:05 1021 30.15 851 25.13 0.4 32.7 67 -5 23.1
17:10 1021 30.15 851 25.13 0.2 32.3 68 -5 23
17:15 1022 30.18 851 25.13 0.2 32.4 67 -5.2 22.7
17:20 1021 30.15 851 25.13 0.6 33 65 -5.2 22.6
17:25 1021 30.15 851 25.13 0.5 33 64 -5.5 22
17:30 1021 30.15 850 25.1 0.7 33.3 63 -5.6 21.9
17:35 1021 30.15 850 25.1 1 33.8 63 -5.2 22.7
17:40 1021 30.15 850 25.1 1 33.8 62 -5.5 22.1
17:45 1021 30.15 850 25.1 1 33.8 64 -5.1 22.8
17:50 1021 30.15 850 25.1 0.6 33.1 68 -4.6 23.8
17:55 1021 30.15 850 25.1 0.3 32.5 66 -5.3 22.4
18:00 1021 30.15 850 25.1 0.6 33 62 -6 21.3
18:05 1021 30.15 850 25.1 0.8 33.5 61 -5.8 21.6
18:10 1021 30.15 850 25.1 1 33.8 61 -5.7 21.7
18:15 1021 30.15 850 25.1 1 33.8 63 -5.3 22.5
18:20 1021 30.15 850 25.1 0.7 33.2 65 -5.1 22.8
18:25 1021 30.15 850 25.1 0.8 33.5 65 -4.9 23.2
18:30 1021 30.15 850 25.1 0.9 33.7 65 -5 23
18:35 1021 30.15 850 25.1 1 33.8 64 -5.1 22.8
18:40 1021 30.15 850 25.1 1.1 34 64 -5.1 22.9
18:45 1021 30.15 850 25.1 1.1 34 64 -5 22.9
18:50 1021 30.15 850 25.1 1.1 34 63 -5.1 22.9
18:55 1021 30.15 850 25.1 1.1 34.1 63 -5.1 22.8
19:00 1021 30.15 850 25.1 1.2 34.1 62 -5.3 22.4
19:05 1021 30.15 850 25.1 1.3 34.3 62 -5.3 22.4
19:10 1021 30.15 850 25.1 1.4 34.5 61 -5.3 22.5
19:15 1021 30.15 850 25.1 1.5 34.6 60 -5.4 22.3
19:20 1021 30.15 850 25.1 1.5 34.7 60 -5.4 22.3
19:25 1021 30.15 850 25.1 1.4 34.5 61 -5.2 22.6
19:30 1020 30.12 850 25.1 1.3 34.3 62 -5.3 22.4
19:35 1020 30.12 850 25.1 1.2 34.2 63 -5.2 22.7
19:40 1020 30.12 850 25.1 1.2 34.2 62 -5.3 22.4
19:45 1020 30.12 850 25.1 1.3 34.3 63 -5.1 22.9
19:50 1020 30.12 849 25.07 1.3 34.3 62 -5.3 22.5
19:55 1020 30.12 849 25.07 1.4 34.5 62 -5.2 22.6
20:00 1020 30.12 849 25.07 1.3 34.4 62 -5.2 22.7
20:05 1020 30.12 849 25.07 1.4 34.5 62 -5.1 22.9
20:10 1020 30.12 850 25.1 1.4 34.4 63 -4.9 23.2
20:15 1020 30.12 849 25.07 1.3 34.4 62 -5.1 22.9
20:20 1020 30.12 850 25.1 1.4 34.5 63 -4.9 23.2
20:25 1020 30.12 850 25.1 1.3 34.3 64 -4.7 23.5
20:30 1021 30.15 850 25.1 1.2 34.2 64 -4.8 23.4
20:35 1020 30.12 850 25.1 1.3 34.3 63 -4.9 23.1
20:40 1020 30.12 850 25.1 1.5 34.6 63 -4.9 23.2
20:45 1020 30.12 849 25.07 1.6 34.8 61 -5.1 22.9
20:50 1020 30.12 849 25.07 1.7 35.1 62 -4.9 23.3
20:55 1020 30.12 849 25.07 1.7 35 62 -4.8 23.3
21:00 1020 30.12 849 25.07 1.6 34.9 62 -4.9 23.2
21:05 1020 30.12 849 25.07 1.6 34.9 62 -4.9 23.2
21:10 1020 30.12 849 25.07 1.7 35.1 62 -4.8 23.4
21:15 1020 30.12 850 25.1 1.5 34.8 65 -4.3 24.2
21:20 1020 30.12 850 25.1 1 33.7 68 -4.2 24.4
21:25 1020 30.12 850 25.1 0.3 32.6 71 -4.3 24.2
21:30 1020 30.12 850 25.1 0.3 32.6 69 -4.8 23.4
21:35 1020 30.12 850 25.1 0.6 33.1 68 -4.7 23.6
21:40 1020 30.12 850 25.1 0.7 33.3 68 -4.5 23.8
21:45 1020 30.12 850 25.1 0.7 33.3 67 -4.6 23.7
21:50 1021 30.15 850 25.1 0.7 33.3 67 -4.8 23.4
21:55 1021 30.15 850 25.1 0.9 33.6 67 -4.7 23.6
22:00 1021 30.15 850 25.1 0.8 33.5 67 -4.6 23.7
22:05 1021 30.15 850 25.1 0.9 33.6 65 -4.9 23.3
22:10 1021 30.15 850 25.1 1 33.7 66 -4.8 23.4
22:15 1021 30.15 850 25.1 1 33.9 65 -4.8 23.3
22:20 1021 30.15 850 25.1 1.1 34.1 65 -4.7 23.6
22:25 1021 30.15 850 25.1 1.1 34 64 -4.9 23.2
22:30 1021 30.15 850 25.1 1.2 34.2 65 -4.7 23.5
22:35 1021 30.15 850 25.1 1.2 34.1 64 -4.9 23.3
22:40 1021 30.15 850 25.1 1.2 34.2 65 -4.7 23.5
22:45 1021 30.15 850 25.1 1.4 34.5 62 -5.1 22.7
22:50 1021 30.15 850 25.1 1.6 34.9 63 -4.7 23.5
22:55 1021 30.15 850 25.1 1.5 34.7 63 -4.8 23.3
23:00 1021 30.15 850 25.1 1.5 34.7 62 -5 23.1
23:05 1021 30.15 850 25.1 1.7 35 61 -5 23.1
23:10 1021 30.15 850 25.1 1.8 35.3 60 -5.1 22.9
23:15 1021 30.15 850 25.1 1.9 35.5 61 -4.9 23.2
23:20 1021 30.15 850 25.1 2 35.6 60 -5 23.1
23:25 1021 30.15 850 25.1 2.1 35.8 61 -4.7 23.6
23:30 1021 30.15 850 25.1 2 35.5 61 -4.7 23.6
23:35 1021 30.15 850 25.1 1.8 35.3 62 -4.6 23.8
23:40 1021 30.15 850 25.1 1.8 35.3 62 -4.7 23.6
23:45 1021 30.15 850 25.1 1.8 35.2 62 -4.7 23.6
23:50 1021 30.15 850 25.1 1.7 35.1 62 -4.7 23.5
23:55 1021 30.15 850 25.1 1.7 35.1 62 -4.7 23.5
24:00 1021 30.15 850 25.1 1.8 35.2 62 -4.7 23.6